WLF2561 LEMD-LGAV
Flight info
| Callsign | WLF2561 |
|---|---|
| Flight time | N/A |
| Altitude | 36000 |
| Route | PINAR N870 PONEN/N0477F350 N870 SEROX/N0477F360 N870 BCN/N0475F350 DCT DIPES/N0474F360 N725 OSPOK/N0476F350 DCT NOLVI DCT ORKUM/N0474F360 DCT ELSAG DCT ALG/N0474F370 DCT QUENN DCT LODPA DCT DINOB DCT ARA UY144 NEMES |
| Aircraft | B77L/H-SDE1E2E3FGHIJ2J3J4J5M1RWXY/LB1D1 |
Departure
| Time | 2026-05-03 23:16 |
|---|---|
| Airport | Adolfo Suárez Madrid–Barajas Airport (LEMD) |
Arrival
| Time | N/A |
|---|---|
| Airport | Athens Eleftherios Venizelos International Airport (LGAV) |
| Time | Latitude | Longitude | Altitude | Speed | Heading |
|---|---|---|---|---|---|
| 2026-05-03 22:55 | 40.45551 | -3.57021 | 1985 ft | 0 kts | 134° |
| 2026-05-03 23:04 | 40.45554 | -3.57025 | 1985 ft | 3 kts | 134° |
| 2026-05-03 23:05 | 40.45570 | -3.57052 | 1986 ft | 4 kts | 116° |
| 2026-05-03 23:05 | 40.45578 | -3.57084 | 1987 ft | 4 kts | 86° |
| 2026-05-03 23:05 | 40.45571 | -3.57112 | 1985 ft | 1 kts | 45° |
| 2026-05-03 23:07 | 40.45572 | -3.57110 | 1985 ft | 2 kts | 44° |
| 2026-05-03 23:07 | 40.45602 | -3.57072 | 1987 ft | 10 kts | 45° |
| 2026-05-03 23:07 | 40.45685 | -3.56965 | 1987 ft | 21 kts | 44° |
| 2026-05-03 23:08 | 40.45789 | -3.56843 | 1989 ft | 18 kts | 18° |
| 2026-05-03 23:08 | 40.45906 | -3.56818 | 1987 ft | 18 kts | 34° |
| 2026-05-03 23:08 | 40.46015 | -3.56750 | 1985 ft | 18 kts | 2° |
| 2026-05-03 23:08 | 40.46138 | -3.56749 | 1985 ft | 18 kts | 359° |
| 2026-05-03 23:09 | 40.46211 | -3.56707 | 1989 ft | 12 kts | 64° |
| 2026-05-03 23:09 | 40.46222 | -3.56603 | 1987 ft | 12 kts | 92° |
| 2026-05-03 23:09 | 40.46248 | -3.56510 | 1989 ft | 12 kts | 32° |
| 2026-05-03 23:09 | 40.46327 | -3.56490 | 1986 ft | 12 kts | 358° |
| 2026-05-03 23:10 | 40.46412 | -3.56490 | 1985 ft | 13 kts | 2° |
| 2026-05-03 23:10 | 40.46522 | -3.56483 | 1985 ft | 20 kts | 3° |
| 2026-05-03 23:10 | 40.46689 | -3.56471 | 1988 ft | 28 kts | 4° |
| 2026-05-03 23:10 | 40.46818 | -3.56461 | 1988 ft | 26 kts | 4° |
| 2026-05-03 23:11 | 40.46993 | -3.56449 | 1988 ft | 26 kts | 356° |
| 2026-05-03 23:11 | 40.47161 | -3.56521 | 1987 ft | 26 kts | 322° |
| 2026-05-03 23:11 | 40.47302 | -3.56666 | 1985 ft | 26 kts | 321° |
| 2026-05-03 23:11 | 40.47443 | -3.56808 | 1989 ft | 26 kts | 322° |
| 2026-05-03 23:12 | 40.47584 | -3.56954 | 1985 ft | 26 kts | 321° |
| 2026-05-03 23:12 | 40.47722 | -3.57103 | 1987 ft | 26 kts | 322° |
| 2026-05-03 23:12 | 40.47866 | -3.57241 | 1985 ft | 26 kts | 324° |
| 2026-05-03 23:12 | 40.48009 | -3.57382 | 1987 ft | 26 kts | 321° |
| 2026-05-03 23:13 | 40.48148 | -3.57529 | 1988 ft | 26 kts | 320° |
| 2026-05-03 23:13 | 40.48289 | -3.57672 | 1985 ft | 26 kts | 322° |
| 2026-05-03 23:13 | 40.48433 | -3.57812 | 1985 ft | 26 kts | 327° |
| 2026-05-03 23:13 | 40.48591 | -3.57919 | 1985 ft | 26 kts | 343° |
| 2026-05-03 23:14 | 40.48769 | -3.57936 | 1985 ft | 26 kts | 358° |
| 2026-05-03 23:14 | 40.48947 | -3.57939 | 1985 ft | 26 kts | 359° |
| 2026-05-03 23:14 | 40.49110 | -3.57939 | 1986 ft | 19 kts | 3° |
| 2026-05-03 23:14 | 40.49174 | -3.57815 | 1988 ft | 19 kts | 89° |
| 2026-05-03 23:15 | 40.49177 | -3.57643 | 1986 ft | 19 kts | 82° |
| 2026-05-03 23:15 | 40.49224 | -3.57486 | 1987 ft | 18 kts | 45° |
| 2026-05-03 23:15 | 40.49347 | -3.57464 | 1988 ft | 22 kts | 0° |
| 2026-05-03 23:15 | 40.49659 | -3.57463 | 1987 ft | 76 kts | 359° |
| 2026-05-03 23:16 | 40.50426 | -3.57468 | 1985 ft | 141 kts | 360° |
| 2026-05-03 23:16 | 40.51589 | -3.57474 | 2001 ft | 189 kts | 0° |
| 2026-05-03 23:16 | 40.52945 | -3.57429 | 2474 ft | 194 kts | 3° |
| 2026-05-03 23:16 | 40.54291 | -3.57346 | 3167 ft | 191 kts | 358° |
| 2026-05-03 23:17 | 40.55615 | -3.57254 | 3763 ft | 196 kts | 12° |
| 2026-05-03 23:17 | 40.56990 | -3.56724 | 4029 ft | 218 kts | 15° |
| 2026-05-03 23:17 | 40.58536 | -3.56151 | 4281 ft | 244 kts | 14° |
| 2026-05-03 23:17 | 40.60211 | -3.55538 | 4832 ft | 255 kts | 14° |
| 2026-05-03 23:18 | 40.61928 | -3.54903 | 5551 ft | 259 kts | 15° |
| 2026-05-03 23:18 | 40.63675 | -3.54266 | 6322 ft | 260 kts | 12° |
| 2026-05-03 23:18 | 40.65462 | -3.53956 | 6932 ft | 267 kts | 3° |
| 2026-05-03 23:18 | 40.67359 | -3.53826 | 7569 ft | 273 kts | 2° |
| 2026-05-03 23:19 | 40.69266 | -3.53645 | 8163 ft | 277 kts | 10° |
| 2026-05-03 23:19 | 40.70981 | -3.52526 | 8635 ft | 287 kts | 45° |
| 2026-05-03 23:19 | 40.72168 | -3.50433 | 9224 ft | 289 kts | 58° |
| 2026-05-03 23:19 | 40.73289 | -3.48193 | 9846 ft | 295 kts | 58° |
| 2026-05-03 23:20 | 40.74435 | -3.45926 | 10465 ft | 300 kts | 58° |
| 2026-05-03 23:20 | 40.75608 | -3.43623 | 11123 ft | 305 kts | 58° |
| 2026-05-03 23:20 | 40.76812 | -3.41280 | 11699 ft | 311 kts | 57° |
| 2026-05-03 23:20 | 40.78033 | -3.38905 | 12420 ft | 315 kts | 57° |
| 2026-05-03 23:21 | 40.79274 | -3.36492 | 13224 ft | 321 kts | 57° |
| 2026-05-03 23:21 | 40.80555 | -3.34011 | 13805 ft | 335 kts | 57° |
| 2026-05-03 23:21 | 40.81915 | -3.31379 | 14014 ft | 361 kts | 56° |
| 2026-05-03 23:21 | 40.83384 | -3.28538 | 14208 ft | 387 kts | 56° |
| 2026-05-03 23:22 | 40.86124 | -3.22055 | 14727 ft | 417 kts | 76° |
| 2026-05-03 23:22 | 40.86825 | -3.18290 | 15320 ft | 426 kts | 79° |
| 2026-05-03 23:22 | 40.87497 | -3.14501 | 16130 ft | 431 kts | 79° |
| 2026-05-03 23:23 | 40.88209 | -3.10593 | 17004 ft | 434 kts | 78° |
| 2026-05-03 23:23 | 40.88931 | -3.06746 | 17829 ft | 439 kts | 78° |
| 2026-05-03 23:23 | 40.89697 | -3.02763 | 18549 ft | 445 kts | 78° |
| 2026-05-03 23:23 | 40.90463 | -2.98823 | 19161 ft | 451 kts | 78° |
| 2026-05-03 23:24 | 40.91251 | -2.94780 | 19830 ft | 456 kts | 78° |
| 2026-05-03 23:24 | 40.92056 | -2.90649 | 20485 ft | 462 kts | 78° |
| 2026-05-03 23:24 | 40.92863 | -2.86507 | 21110 ft | 468 kts | 78° |
| 2026-05-03 23:24 | 40.93667 | -2.82371 | 21727 ft | 473 kts | 78° |
| 2026-05-03 23:25 | 40.94497 | -2.78088 | 22380 ft | 478 kts | 78° |
| 2026-05-03 23:25 | 40.95315 | -2.73859 | 22993 ft | 483 kts | 78° |
| 2026-05-03 23:25 | 40.96159 | -2.69482 | 23605 ft | 488 kts | 78° |
| 2026-05-03 23:25 | 40.96991 | -2.65155 | 24087 ft | 493 kts | 78° |
| 2026-05-03 23:26 | 40.97840 | -2.60736 | 24635 ft | 497 kts | 78° |
| 2026-05-03 23:26 | 40.98695 | -2.56290 | 25148 ft | 502 kts | 78° |
| 2026-05-03 23:26 | 40.99564 | -2.51791 | 25667 ft | 506 kts | 78° |
| 2026-05-03 23:26 | 41.00440 | -2.47263 | 26162 ft | 511 kts | 78° |
| 2026-05-03 23:27 | 41.01325 | -2.42680 | 26649 ft | 516 kts | 78° |
| 2026-05-03 23:27 | 41.02214 | -2.38056 | 27128 ft | 520 kts | 78° |
| 2026-05-03 23:27 | 41.03104 | -2.33383 | 27616 ft | 524 kts | 78° |
| 2026-05-03 23:27 | 41.03990 | -2.28683 | 28062 ft | 529 kts | 78° |
| 2026-05-03 23:28 | 41.04879 | -2.23949 | 28620 ft | 530 kts | 78° |
| 2026-05-03 23:28 | 41.05769 | -2.19197 | 29130 ft | 533 kts | 78° |
| 2026-05-03 23:28 | 41.06665 | -2.14409 | 29518 ft | 537 kts | 78° |
| 2026-05-03 23:28 | 41.07567 | -2.09588 | 29878 ft | 541 kts | 78° |
| 2026-05-03 23:29 | 41.08474 | -2.04746 | 30354 ft | 542 kts | 78° |
| 2026-05-03 23:29 | 41.09377 | -1.99917 | 30853 ft | 540 kts | 78° |
| 2026-05-03 23:29 | 41.10277 | -1.95086 | 31286 ft | 540 kts | 78° |
| 2026-05-03 23:29 | 41.11178 | -1.90245 | 31687 ft | 541 kts | 78° |
| 2026-05-03 23:30 | 41.12077 | -1.85410 | 32237 ft | 538 kts | 78° |
| 2026-05-03 23:30 | 41.12967 | -1.80597 | 32747 ft | 537 kts | 78° |
| 2026-05-03 23:30 | 41.13856 | -1.75781 | 33177 ft | 538 kts | 78° |
| 2026-05-03 23:30 | 41.14741 | -1.70984 | 33589 ft | 538 kts | 78° |
| 2026-05-03 23:31 | 41.15630 | -1.66152 | 34021 ft | 537 kts | 78° |
| 2026-05-03 23:31 | 41.16512 | -1.61348 | 34385 ft | 537 kts | 78° |
| 2026-05-03 23:31 | 41.17392 | -1.56536 | 34778 ft | 535 kts | 78° |
| 2026-05-03 23:31 | 41.18265 | -1.51748 | 35139 ft | 534 kts | 78° |
| 2026-05-03 23:32 | 41.19136 | -1.46960 | 35564 ft | 532 kts | 78° |
| 2026-05-03 23:32 | 41.20003 | -1.42181 | 35911 ft | 532 kts | 78° |
| 2026-05-03 23:32 | 41.21734 | -1.32570 | 36007 ft | 536 kts | 78° |
| 2026-05-03 23:33 | 41.23451 | -1.22974 | 35992 ft | 531 kts | 78° |
| 2026-05-03 23:33 | 41.25148 | -1.13440 | 35978 ft | 529 kts | 78° |
| 2026-05-03 23:34 | 41.26832 | -1.03931 | 35981 ft | 529 kts | 78° |
| 2026-05-03 23:34 | 41.28509 | -0.94413 | 35993 ft | 529 kts | 78° |
| 2026-05-03 23:35 | 41.30173 | -0.84928 | 35993 ft | 531 kts | 78° |
| 2026-05-03 23:35 | 41.31843 | -0.75357 | 35968 ft | 532 kts | 78° |
| 2026-05-03 23:36 | 41.33506 | -0.65782 | 35990 ft | 532 kts | 78° |
| 2026-05-03 23:36 | 41.35038 | -0.56144 | 35999 ft | 531 kts | 83° |
| 2026-05-03 23:37 | 41.35467 | -0.46399 | 35992 ft | 526 kts | 94° |
| 2026-05-03 23:37 | 41.35322 | -0.36672 | 35989 ft | 525 kts | 94° |
| 2026-05-03 23:38 | 41.35198 | -0.26968 | 35993 ft | 525 kts | 94° |
| 2026-05-03 23:38 | 41.35108 | -0.17265 | 35991 ft | 524 kts | 93° |
| 2026-05-03 23:39 | 41.35023 | -0.07557 | 35991 ft | 524 kts | 93° |
| 2026-05-03 23:39 | 41.34927 | 0.02143 | 35980 ft | 524 kts | 93° |
| 2026-05-03 23:40 | 41.34822 | 0.11821 | 35992 ft | 523 kts | 93° |
| 2026-05-03 23:40 | 41.34705 | 0.21500 | 35976 ft | 523 kts | 93° |
| 2026-05-03 23:41 | 41.34578 | 0.31183 | 36000 ft | 524 kts | 94° |
| 2026-05-03 23:41 | 41.34437 | 0.40889 | 35978 ft | 525 kts | 93° |
| 2026-05-03 23:42 | 41.34295 | 0.50539 | 36001 ft | 525 kts | 93° |
| 2026-05-03 23:42 | 41.34142 | 0.60249 | 36001 ft | 525 kts | 94° |
| 2026-05-03 23:43 | 41.33975 | 0.69975 | 36011 ft | 525 kts | 94° |
| 2026-05-03 23:43 | 41.33801 | 0.79675 | 36007 ft | 524 kts | 94° |
| 2026-05-03 23:44 | 41.33622 | 0.89340 | 36016 ft | 522 kts | 94° |
| 2026-05-03 23:44 | 41.33433 | 0.98996 | 36021 ft | 521 kts | 94° |
| 2026-05-03 23:45 | 41.33239 | 1.08620 | 36019 ft | 520 kts | 94° |
| 2026-05-03 23:45 | 41.33036 | 1.18233 | 36009 ft | 519 kts | 94° |
| 2026-05-03 23:46 | 41.32838 | 1.27827 | 36018 ft | 519 kts | 94° |
| 2026-05-03 23:46 | 41.32632 | 1.37419 | 36025 ft | 519 kts | 94° |
| 2026-05-03 23:47 | 41.32418 | 1.47010 | 36018 ft | 519 kts | 94° |
| 2026-05-03 23:47 | 41.32196 | 1.56599 | 36005 ft | 519 kts | 94° |
| 2026-05-03 23:48 | 41.31969 | 1.66135 | 36011 ft | 518 kts | 94° |
| 2026-05-03 23:48 | 41.31721 | 1.75715 | 36020 ft | 518 kts | 94° |
| 2026-05-03 23:49 | 41.31447 | 1.85350 | 36014 ft | 518 kts | 94° |